createdAt,value
2022-07-27T00:00:13.769Z,63.30
2022-07-27T00:00:46.935Z,62.17
2022-07-27T00:01:22.188Z,61.60
2022-07-27T00:01:55.245Z,61.70
2022-07-27T00:02:27.959Z,61.78
2022-07-27T00:03:00.135Z,61.97
2022-07-27T00:03:34.519Z,62.20
2022-07-27T00:04:09.058Z,61.35
2022-07-27T00:04:41.241Z,61.55
2022-07-27T00:05:13.339Z,61.25
2022-07-27T00:05:46.486Z,61.58
2022-07-27T00:06:18.621Z,61.85
2022-07-27T00:06:51.835Z,61.38
2022-07-27T00:07:26.137Z,61.50
2022-07-27T00:07:58.162Z,61.50
2022-07-27T00:08:31.236Z,62.42
2022-07-27T00:09:03.919Z,61.72
2022-07-27T00:09:36.427Z,61.50
2022-07-27T00:10:10.301Z,62.08
2022-07-27T00:10:42.528Z,61.30
2022-07-27T00:11:14.885Z,61.72
2022-07-27T00:11:50.654Z,61.00
2022-07-27T00:12:22.833Z,61.47
2022-07-27T00:12:55.052Z,61.15
2022-07-27T00:13:27.159Z,62.78
2022-07-27T00:14:00.417Z,61.90
2022-07-27T00:14:32.526Z,61.75
2022-07-27T00:15:05.501Z,61.30
2022-07-27T00:15:38.763Z,61.92
2022-07-27T00:16:11.382Z,61.50
2022-07-27T00:16:43.530Z,61.25
2022-07-27T00:17:16.610Z,61.70
2022-07-27T00:17:48.584Z,61.33
2022-07-27T00:18:23.117Z,63.00
2022-07-27T00:18:56.188Z,61.63
2022-07-27T00:19:29.517Z,61.70
2022-07-27T00:20:01.560Z,61.53
2022-07-27T00:20:37.789Z,61.03
2022-07-27T00:21:09.806Z,61.83
2022-07-27T00:21:46.241Z,61.50
2022-07-27T00:22:24.976Z,61.40
2022-07-27T00:22:57.789Z,61.40
2022-07-27T00:23:30.948Z,61.60
2022-07-27T00:24:06.086Z,61.88
2022-07-27T00:24:38.111Z,60.92
2022-07-27T00:25:11.626Z,61.47
2022-07-27T00:25:48.454Z,61.20
2022-07-27T00:26:21.524Z,62.03
2022-07-27T00:26:53.582Z,61.40
2022-07-27T00:27:25.613Z,61.35
2022-07-27T00:27:57.726Z,61.42
2022-07-27T00:28:30.926Z,61.55
2022-07-27T00:29:02.946Z,61.63
2022-07-27T00:29:35.546Z,61.90
2022-07-27T00:30:09.167Z,61.42
2022-07-27T00:30:44.153Z,61.63
2022-07-27T00:31:18.213Z,61.78
2022-07-27T00:31:50.312Z,61.85
2022-07-27T00:32:22.535Z,61.95
2022-07-27T00:32:55.410Z,62.47
2022-07-27T00:33:31.712Z,62.20
2022-07-27T00:34:03.742Z,61.60
2022-07-27T00:34:37.472Z,61.92
2022-07-27T00:35:11.371Z,61.53
2022-07-27T00:35:45.613Z,60.90
2022-07-27T00:36:17.706Z,61.95
2022-07-27T00:36:53.215Z,61.30
2022-07-27T00:37:25.162Z,62.00
2022-07-27T00:37:57.373Z,61.90
2022-07-27T00:38:31.563Z,61.70
2022-07-27T00:39:03.817Z,61.60
2022-07-27T00:39:35.747Z,61.33
2022-07-27T00:40:10.201Z,61.70
2022-07-27T00:40:43.220Z,61.17
2022-07-27T00:41:15.308Z,61.22
2022-07-27T00:41:47.274Z,61.42
2022-07-27T00:42:26.612Z,61.75
2022-07-27T00:42:58.646Z,62.00
2022-07-27T00:43:30.790Z,61.40
2022-07-27T00:44:06.703Z,61.15
2022-07-27T00:44:38.723Z,61.65
2022-07-27T00:45:11.702Z,61.33
2022-07-27T00:45:45.177Z,61.33
2022-07-27T00:46:17.489Z,61.65
2022-07-27T00:46:49.715Z,62.70
2022-07-27T00:47:22.985Z,61.33
2022-07-27T00:47:55.320Z,61.22
2022-07-27T00:48:36.252Z,61.10
2022-07-27T00:49:09.676Z,61.83
2022-07-27T00:49:43.360Z,61.67
2022-07-27T00:50:15.519Z,60.88
2022-07-27T00:50:49.069Z,61.63
2022-07-27T00:51:22.257Z,61.28
2022-07-27T00:51:54.519Z,61.88
2022-07-27T00:52:30.177Z,61.60
2022-07-27T00:53:04.961Z,62.03
2022-07-27T00:53:37.081Z,61.17
2022-07-27T00:54:10.630Z,61.83
2022-07-27T00:54:43.204Z,61.88
2022-07-27T00:55:15.928Z,61.92
2022-07-27T00:55:49.149Z,61.45
2022-07-27T00:56:21.944Z,62.00
2022-07-27T00:56:54.781Z,61.95
2022-07-27T00:57:28.868Z,61.75
2022-07-27T00:58:01.481Z,61.47
2022-07-27T00:58:33.829Z,61.55
2022-07-27T00:59:08.244Z,61.30
2022-07-27T00:59:45.897Z,62.60
2022-07-27T01:00:18.379Z,61.75
2022-07-27T01:00:51.389Z,62.85
2022-07-27T01:01:23.546Z,61.88
2022-07-27T01:01:56.184Z,62.08
2022-07-27T01:02:29.354Z,60.95
2022-07-27T01:03:02.501Z,61.70
2022-07-27T01:03:40.735Z,61.17
2022-07-27T01:04:13.875Z,62.00
2022-07-27T01:04:47.545Z,61.80
2022-07-27T01:05:20.472Z,61.38
2022-07-27T01:05:54.069Z,61.58
2022-07-27T01:06:27.161Z,62.25
2022-07-27T01:07:00.192Z,61.17
2022-07-27T01:07:33.487Z,61.53
2022-07-27T01:08:06.924Z,61.53
2022-07-27T01:08:39.501Z,61.38
2022-07-27T01:09:29.706Z,61.28
2022-07-27T01:10:06.529Z,60.97
2022-07-27T01:10:39.207Z,62.15
2022-07-27T01:11:12.912Z,60.65
2022-07-27T01:11:45.054Z,61.35
2022-07-27T01:12:18.847Z,62.67
2022-07-27T01:12:50.990Z,61.63
2022-07-27T01:13:25.031Z,61.63
2022-07-27T01:13:57.054Z,61.75
2022-07-27T01:14:29.204Z,62.00
2022-07-27T01:15:02.342Z,61.35
2022-07-27T01:15:36.856Z,62.50
2022-07-27T01:16:11.065Z,61.55
2022-07-27T01:16:43.701Z,61.85
2022-07-27T01:17:16.159Z,61.50
2022-07-27T01:17:48.247Z,61.38
2022-07-27T01:18:30.154Z,62.00
2022-07-27T01:19:02.136Z,62.03
2022-07-27T01:19:35.910Z,61.50
2022-07-27T01:20:11.156Z,61.25
2022-07-27T01:20:46.163Z,61.35
2022-07-27T01:21:18.222Z,61.33
2022-07-27T01:21:52.504Z,61.53
2022-07-27T01:22:24.480Z,61.22
2022-07-27T01:22:56.649Z,61.65
2022-07-27T01:23:32.470Z,61.75
2022-07-27T01:24:05.314Z,61.67
2022-07-27T01:24:37.872Z,61.72
2022-07-27T01:25:11.659Z,61.38
2022-07-27T01:25:43.720Z,61.78
2022-07-27T01:26:15.849Z,62.38
2022-07-27T01:26:49.255Z,62.05
2022-07-27T01:27:21.461Z,61.35
2022-07-27T01:27:53.676Z,61.58
2022-07-27T01:28:26.689Z,61.92
2022-07-27T01:28:59.860Z,61.42
2022-07-27T01:29:33.099Z,61.70
2022-07-27T01:30:26.465Z,62.17
2022-07-27T01:30:58.601Z,61.72
2022-07-27T01:31:31.179Z,61.55
2022-07-27T01:32:04.967Z,61.47
2022-07-27T01:32:36.944Z,61.50
2022-07-27T01:33:09.705Z,61.75
2022-07-27T01:33:42.690Z,61.83
2022-07-27T01:34:14.804Z,61.78
2022-07-27T01:34:46.930Z,62.38
2022-07-27T01:35:20.126Z,61.97
2022-07-27T01:35:54.028Z,61.97
2022-07-27T01:36:27.307Z,61.88
2022-07-27T01:37:01.214Z,61.22
2022-07-27T01:37:33.551Z,62.03
2022-07-27T01:38:06.136Z,61.65
2022-07-27T01:38:39.098Z,61.92
2022-07-27T01:39:11.429Z,61.45
2022-07-27T01:39:43.732Z,61.55
2022-07-27T01:40:16.722Z,62.05
2022-07-27T01:40:49.730Z,61.78
2022-07-27T01:41:21.799Z,61.75
2022-07-27T01:41:54.870Z,61.80
2022-07-27T01:42:26.986Z,61.60
2022-07-27T01:43:01.448Z,61.75
2022-07-27T01:43:34.475Z,61.88
2022-07-27T01:44:07.693Z,62.00
2022-07-27T01:44:39.726Z,61.97
2022-07-27T01:45:12.839Z,61.90
2022-07-27T01:45:44.994Z,61.45
2022-07-27T01:46:18.036Z,61.33
2022-07-27T01:46:50.183Z,61.58
2022-07-27T01:47:22.276Z,61.60
2022-07-27T01:47:55.597Z,61.90
2022-07-27T01:48:27.618Z,62.53
2022-07-27T01:49:00.013Z,62.30
2022-07-27T01:49:34.505Z,61.78
2022-07-27T01:50:07.071Z,61.60
2022-07-27T01:50:39.479Z,61.63
2022-07-27T01:51:12.489Z,61.17
2022-07-27T01:51:44.499Z,61.47
2022-07-27T01:52:17.861Z,61.88
2022-07-27T01:52:50.852Z,62.00
2022-07-27T01:53:23.543Z,63.17
2022-07-27T01:53:55.575Z,62.33
2022-07-27T01:54:28.540Z,61.95
2022-07-27T01:55:00.533Z,61.47
2022-07-27T01:55:38.904Z,62.22
2022-07-27T01:56:11.901Z,61.50
2022-07-27T01:56:45.353Z,61.50
2022-07-27T01:57:17.305Z,61.92
2022-07-27T01:57:49.457Z,61.22
2022-07-27T01:58:22.841Z,61.35
2022-07-27T01:58:55.307Z,62.05
2022-07-27T01:59:27.408Z,62.17
2022-07-27T02:00:00.434Z,62.17
2022-07-27T02:00:32.558Z,61.15
2022-07-27T02:01:04.961Z,62.05
2022-07-27T02:01:37.990Z,62.50
2022-07-27T02:02:10.056Z,61.20
2022-07-27T02:02:42.502Z,61.97
2022-07-27T02:03:15.499Z,62.15
2022-07-27T02:03:47.592Z,61.53
2022-07-27T02:04:19.634Z,61.63
2022-07-27T02:04:52.712Z,61.75
2022-07-27T02:05:24.985Z,62.03
2022-07-27T02:05:57.012Z,61.72
2022-07-27T02:06:29.999Z,61.72
2022-07-27T02:07:02.225Z,61.55
2022-07-27T02:07:35.647Z,61.60
2022-07-27T02:08:09.229Z,60.97
2022-07-27T02:08:41.510Z,61.38
2022-07-27T02:09:13.976Z,61.60
2022-07-27T02:09:47.453Z,61.55
2022-07-27T02:10:19.661Z,61.85
2022-07-27T02:11:10.440Z,61.75
2022-07-27T02:12:09.166Z,62.25
2022-07-27T02:12:41.245Z,61.03
2022-07-27T02:13:15.368Z,60.85
2022-07-27T02:13:56.020Z,61.55
2022-07-27T02:14:28.074Z,62.17
2022-07-27T02:15:05.461Z,61.65
2022-07-27T02:15:42.970Z,61.65
2022-07-27T02:16:17.506Z,61.40
2022-07-27T02:16:50.907Z,62.55
2022-07-27T02:17:23.014Z,61.60
2022-07-27T02:17:56.270Z,61.90
2022-07-27T02:18:36.242Z,61.10
2022-07-27T02:19:09.195Z,61.90
2022-07-27T02:19:43.417Z,61.95
2022-07-27T02:20:18.370Z,61.60
2022-07-27T02:20:50.430Z,62.05
2022-07-27T02:21:22.951Z,62.92
2022-07-27T02:21:56.025Z,61.50
2022-07-27T02:22:28.109Z,62.28
2022-07-27T02:23:01.784Z,62.15
2022-07-27T02:23:35.865Z,62.33
2022-07-27T02:24:08.336Z,62.17
2022-07-27T02:24:40.359Z,61.25
2022-07-27T02:25:15.159Z,61.15
2022-07-27T02:25:47.196Z,62.03
2022-07-27T02:26:19.687Z,61.85
2022-07-27T02:26:52.893Z,61.65
2022-07-27T02:27:25.162Z,61.55
2022-07-27T02:27:57.148Z,61.78
2022-07-27T02:28:31.363Z,61.38
2022-07-27T02:29:03.392Z,61.45
2022-07-27T02:29:35.709Z,62.22
2022-07-27T02:30:10.178Z,61.22
2022-07-27T02:30:42.188Z,62.25
2022-07-27T02:31:14.267Z,61.40
2022-07-27T02:31:47.543Z,61.50
2022-07-27T02:32:20.032Z,61.58
2022-07-27T02:32:52.113Z,62.25
2022-07-27T02:33:25.160Z,61.63
2022-07-27T02:33:57.184Z,61.75
2022-07-27T02:34:30.077Z,61.55
2022-07-27T02:35:19.844Z,61.80
2022-07-27T02:35:52.396Z,61.47
2022-07-27T02:36:25.493Z,61.58
2022-07-27T02:36:57.569Z,62.88
2022-07-27T02:37:29.569Z,62.10
2022-07-27T02:38:03.974Z,62.00
2022-07-27T02:38:36.647Z,62.55
2022-07-27T02:39:08.848Z,62.38
2022-07-27T02:39:42.275Z,62.17
2022-07-27T02:40:18.688Z,63.63
2022-07-27T02:40:50.838Z,61.50
2022-07-27T02:41:23.923Z,61.88
2022-07-27T02:41:55.907Z,62.55
2022-07-27T02:42:27.913Z,61.97
2022-07-27T02:43:00.941Z,61.67
2022-07-27T02:43:32.923Z,61.83
2022-07-27T02:44:05.571Z,61.60
2022-07-27T02:44:38.613Z,62.40
2022-07-27T02:45:11.168Z,62.42
2022-07-27T02:45:43.288Z,61.67
2022-07-27T02:46:19.770Z,62.00
2022-07-27T02:46:52.071Z,61.70
2022-07-27T02:47:24.114Z,61.15
2022-07-27T02:47:57.156Z,61.97
2022-07-27T02:48:29.335Z,62.20
2022-07-27T02:49:01.384Z,62.13
2022-07-27T02:49:34.539Z,62.17
2022-07-27T02:50:07.466Z,62.58
2022-07-27T02:50:39.555Z,62.33
2022-07-27T02:51:12.451Z,62.20
2022-07-27T02:51:44.535Z,62.13
2022-07-27T02:52:16.562Z,61.63
2022-07-27T02:52:49.526Z,62.10
2022-07-27T02:53:24.296Z,62.08
2022-07-27T02:53:57.287Z,61.70
2022-07-27T02:54:31.632Z,62.53
2022-07-27T02:55:04.921Z,62.05
2022-07-27T02:55:36.872Z,61.70
2022-07-27T02:56:10.658Z,61.97
2022-07-27T02:56:42.696Z,61.95
2022-07-27T02:57:14.780Z,61.75
2022-07-27T02:57:47.822Z,61.65
2022-07-27T02:58:19.821Z,62.22
2022-07-27T02:58:51.840Z,62.17
2022-07-27T02:59:24.871Z,61.53
2022-07-27T02:59:57.265Z,61.60
2022-07-27T03:00:29.514Z,61.90
2022-07-27T03:01:08.593Z,61.80
2022-07-27T03:01:40.637Z,62.08
2022-07-27T03:02:12.795Z,61.72
2022-07-27T03:02:50.229Z,62.38
2022-07-27T03:03:22.238Z,61.80
2022-07-27T03:03:54.316Z,61.45
2022-07-27T03:04:27.995Z,61.75
2022-07-27T03:05:00.114Z,62.03
2022-07-27T03:05:33.548Z,61.75
2022-07-27T03:06:05.797Z,61.88
2022-07-27T03:06:38.107Z,62.08
2022-07-27T03:07:11.125Z,62.13
2022-07-27T03:07:43.297Z,62.55
2022-07-27T03:08:15.472Z,62.25
2022-07-27T03:08:50.169Z,62.08
2022-07-27T03:09:32.764Z,61.90
2022-07-27T03:10:06.713Z,61.22
2022-07-27T03:10:39.896Z,62.13
2022-07-27T03:11:11.845Z,61.90
2022-07-27T03:11:43.929Z,61.80
2022-07-27T03:12:16.787Z,61.65
2022-07-27T03:12:49.812Z,61.80
2022-07-27T03:13:21.923Z,62.15
2022-07-27T03:13:53.961Z,61.97
2022-07-27T03:14:26.877Z,61.17
2022-07-27T03:14:58.953Z,62.33
2022-07-27T03:15:32.944Z,62.78
2022-07-27T03:16:06.399Z,62.28
2022-07-27T03:16:39.469Z,61.80
2022-07-27T03:17:11.448Z,61.95
2022-07-27T03:17:47.327Z,62.33
2022-07-27T03:18:19.507Z,61.70
2022-07-27T03:18:51.563Z,61.45
2022-07-27T03:19:30.052Z,61.85
2022-07-27T03:20:02.421Z,61.65
2022-07-27T03:20:34.475Z,61.83
2022-07-27T03:21:08.165Z,62.08
2022-07-27T03:21:40.380Z,61.92
2022-07-27T03:22:12.473Z,61.60
2022-07-27T03:22:45.491Z,61.80
2022-07-27T03:23:18.314Z,62.47
2022-07-27T03:23:51.814Z,62.10
2022-07-27T03:24:24.828Z,61.50
2022-07-27T03:24:56.826Z,61.60
2022-07-27T03:25:28.984Z,61.67
2022-07-27T03:26:01.937Z,62.22
2022-07-27T03:26:33.982Z,61.63
2022-07-27T03:27:06.055Z,62.10
2022-07-27T03:27:41.285Z,62.17
2022-07-27T03:28:13.235Z,62.22
2022-07-27T03:28:45.772Z,61.58
2022-07-27T03:29:18.757Z,61.35
2022-07-27T03:29:50.808Z,61.10
2022-07-27T03:30:22.874Z,61.08
2022-07-27T03:30:56.129Z,61.58
2022-07-27T03:31:28.381Z,62.13
2022-07-27T03:32:00.475Z,61.63
2022-07-27T03:32:33.468Z,61.47
2022-07-27T03:33:05.586Z,61.50
2022-07-27T03:33:37.793Z,61.40
2022-07-27T03:34:10.787Z,61.85
2022-07-27T03:34:42.703Z,62.30
2022-07-27T03:35:15.262Z,60.88
2022-07-27T03:35:48.211Z,60.95
2022-07-27T03:36:21.547Z,61.17
2022-07-27T03:36:53.488Z,62.00
2022-07-27T03:37:25.460Z,61.88
2022-07-27T03:37:58.526Z,61.85
2022-07-27T03:38:30.498Z,61.88
2022-07-27T03:39:07.895Z,61.47
2022-07-27T03:39:43.550Z,61.75
2022-07-27T03:40:15.596Z,62.13
2022-07-27T03:40:48.683Z,61.10
2022-07-27T03:41:21.959Z,61.67
2022-07-27T03:41:54.224Z,62.28
2022-07-27T03:42:27.209Z,62.75
2022-07-27T03:42:59.971Z,61.67
2022-07-27T03:43:32.372Z,61.70
2022-07-27T03:44:05.708Z,61.53
2022-07-27T03:44:37.649Z,61.80
2022-07-27T03:45:10.504Z,62.78
2022-07-27T03:45:44.566Z,61.45
2022-07-27T03:46:16.595Z,61.88
2022-07-27T03:46:48.683Z,61.83
2022-07-27T03:47:21.695Z,61.53
2022-07-27T03:47:53.721Z,62.08
2022-07-27T03:48:27.299Z,62.15
2022-07-27T03:49:00.415Z,61.17
2022-07-27T03:49:32.551Z,62.28
2022-07-27T03:50:06.319Z,61.58
2022-07-27T03:50:38.348Z,61.53
2022-07-27T03:51:11.349Z,62.35
2022-07-27T03:51:43.362Z,61.83
2022-07-27T03:52:17.819Z,61.70
2022-07-27T03:52:52.021Z,62.03
2022-07-27T03:53:24.075Z,62.88
2022-07-27T03:53:56.055Z,61.55
2022-07-27T03:54:30.467Z,62.00
2022-07-27T03:55:02.466Z,62.25
2022-07-27T03:55:35.583Z,61.83
2022-07-27T03:56:08.510Z,62.53
2022-07-27T03:56:40.536Z,61.88
2022-07-27T03:57:12.635Z,62.42
2022-07-27T03:57:45.630Z,61.97
2022-07-27T03:58:18.137Z,61.20
2022-07-27T03:58:50.196Z,61.63
2022-07-27T03:59:23.396Z,61.60
2022-07-27T03:59:55.634Z,61.55
2022-07-27T04:00:27.877Z,61.70
2022-07-27T04:01:03.417Z,61.72
2022-07-27T04:01:35.750Z,62.47
2022-07-27T04:02:07.935Z,61.80
2022-07-27T04:02:41.977Z,62.03
2022-07-27T04:03:14.037Z,62.03
2022-07-27T04:03:47.071Z,61.40
2022-07-27T04:04:19.182Z,61.50
2022-07-27T04:04:51.138Z,62.45
2022-07-27T04:05:24.241Z,62.65
2022-07-27T04:06:01.550Z,61.60
2022-07-27T04:06:35.331Z,61.75
2022-07-27T04:07:07.964Z,61.72
2022-07-27T04:07:40.764Z,61.95
2022-07-27T04:08:13.930Z,61.45
2022-07-27T04:08:45.956Z,62.10
2022-07-27T04:09:20.524Z,61.78
2022-07-27T04:09:55.645Z,61.20
2022-07-27T04:10:31.752Z,62.22
2022-07-27T04:11:04.411Z,61.47
2022-07-27T04:11:50.410Z,61.05
2022-07-27T04:12:24.548Z,61.90
2022-07-27T04:13:01.245Z,61.67
2022-07-27T04:13:38.355Z,61.60
2022-07-27T04:14:17.436Z,61.85
2022-07-27T04:14:49.577Z,62.25
2022-07-27T04:15:22.364Z,62.05
2022-07-27T04:15:57.970Z,61.72
2022-07-27T04:16:35.635Z,62.35
2022-07-27T04:17:09.274Z,61.30
2022-07-27T04:17:55.711Z,61.70
2022-07-27T04:18:30.803Z,61.70
2022-07-27T04:19:03.716Z,61.72
2022-07-27T04:19:36.417Z,62.28
2022-07-27T04:20:10.584Z,61.97
2022-07-27T04:20:42.613Z,61.88
2022-07-27T04:21:16.070Z,62.50
2022-07-27T04:21:49.290Z,61.13
2022-07-27T04:22:21.961Z,61.97
2022-07-27T04:22:54.278Z,61.65
2022-07-27T04:23:27.643Z,61.40
2022-07-27T04:24:00.705Z,61.78
2022-07-27T04:24:32.697Z,61.88
2022-07-27T04:25:08.203Z,62.25
2022-07-27T04:25:40.257Z,62.40
2022-07-27T04:26:13.430Z,62.13
2022-07-27T04:26:45.580Z,62.53
2022-07-27T04:27:17.808Z,62.08
2022-07-27T04:27:50.857Z,62.25
2022-07-27T04:28:22.804Z,61.80
2022-07-27T04:28:54.973Z,61.97
2022-07-27T04:29:27.986Z,61.90
2022-07-27T04:29:59.999Z,61.45
2022-07-27T04:30:32.052Z,61.60
2022-07-27T04:31:05.616Z,61.55
2022-07-27T04:31:37.716Z,61.90
2022-07-27T04:32:09.781Z,61.63
2022-07-27T04:32:42.821Z,61.55
2022-07-27T04:33:15.012Z,61.08
2022-07-27T04:33:47.095Z,61.83
2022-07-27T04:34:20.322Z,61.75
2022-07-27T04:34:52.415Z,61.20
2022-07-27T04:35:26.663Z,61.63
2022-07-27T04:35:58.946Z,61.38
2022-07-27T04:36:30.910Z,61.80
2022-07-27T04:37:06.084Z,61.10
2022-07-27T04:37:38.056Z,61.35
2022-07-27T04:38:10.026Z,61.53
2022-07-27T04:38:45.316Z,60.83
2022-07-27T04:39:19.549Z,62.30
2022-07-27T04:39:51.534Z,61.20
2022-07-27T04:40:44.179Z,62.22
2022-07-27T04:41:21.746Z,61.58
2022-07-27T04:41:54.808Z,61.67
2022-07-27T04:42:26.950Z,61.50
2022-07-27T04:42:59.010Z,62.13
2022-07-27T04:43:34.600Z,61.60
2022-07-27T04:44:06.701Z,61.20
2022-07-27T04:44:39.730Z,62.45
2022-07-27T04:45:14.078Z,62.47
2022-07-27T04:45:48.311Z,61.25
2022-07-27T04:46:21.380Z,61.90
2022-07-27T04:46:58.177Z,61.13
2022-07-27T04:47:31.420Z,61.50
2022-07-27T04:48:05.926Z,61.63
2022-07-27T04:48:39.035Z,62.25
2022-07-27T04:49:14.107Z,61.92
2022-07-27T04:49:47.446Z,61.75
2022-07-27T04:50:19.968Z,61.35
2022-07-27T04:50:52.094Z,61.80
2022-07-27T04:51:25.283Z,62.05
2022-07-27T04:51:57.283Z,61.45
2022-07-27T04:52:29.268Z,61.53
2022-07-27T04:53:02.231Z,61.13
2022-07-27T04:53:35.214Z,61.58
2022-07-27T04:54:10.082Z,61.55
2022-07-27T04:54:43.145Z,61.90
2022-07-27T04:55:15.568Z,61.58
2022-07-27T04:55:49.974Z,61.67
2022-07-27T04:56:22.036Z,61.20
2022-07-27T04:56:55.017Z,61.63
2022-07-27T04:57:27.301Z,61.20
2022-07-27T04:58:03.919Z,61.30
2022-07-27T04:58:37.492Z,62.17
2022-07-27T04:59:09.825Z,62.45
2022-07-27T04:59:43.131Z,61.55
2022-07-27T05:00:15.810Z,61.83
2022-07-27T05:00:47.842Z,61.90
2022-07-27T05:01:22.862Z,61.30
2022-07-27T05:01:55.312Z,61.65
2022-07-27T05:02:28.510Z,61.65
2022-07-27T05:03:01.527Z,62.10
2022-07-27T05:03:33.532Z,61.42
2022-07-27T05:04:06.397Z,60.83
2022-07-27T05:04:40.158Z,61.92
2022-07-27T05:05:12.308Z,62.15
2022-07-27T05:05:49.591Z,61.90
2022-07-27T05:06:23.756Z,61.72
2022-07-27T05:06:55.761Z,61.15
2022-07-27T05:07:27.842Z,61.38
2022-07-27T05:08:00.791Z,61.13
2022-07-27T05:08:33.415Z,61.75
2022-07-27T05:09:05.609Z,61.70
2022-07-27T05:09:38.527Z,61.00
2022-07-27T05:10:13.447Z,61.35
2022-07-27T05:10:51.047Z,62.08
2022-07-27T05:11:23.092Z,61.85
2022-07-27T05:11:55.367Z,62.05
2022-07-27T05:12:28.409Z,62.28
2022-07-27T05:13:00.475Z,61.47
2022-07-27T05:13:33.850Z,62.28
2022-07-27T05:14:06.822Z,62.15
2022-07-27T05:14:41.846Z,61.88
2022-07-27T05:15:13.914Z,61.70
2022-07-27T05:15:55.205Z,61.78
2022-07-27T05:16:29.061Z,61.40
2022-07-27T05:17:02.337Z,61.78
2022-07-27T05:17:37.171Z,61.42
2022-07-27T05:18:09.164Z,62.10
2022-07-27T05:18:42.166Z,61.50
2022-07-27T05:19:14.786Z,61.55
2022-07-27T05:19:49.393Z,61.70
2022-07-27T05:20:22.442Z,61.17
2022-07-27T05:20:54.553Z,61.63
2022-07-27T05:21:27.455Z,61.20
2022-07-27T05:22:00.728Z,60.97
2022-07-27T05:22:36.253Z,61.92
2022-07-27T05:23:12.722Z,62.03
2022-07-27T05:23:47.463Z,61.28
2022-07-27T05:24:20.644Z,61.60
2022-07-27T05:24:53.058Z,61.63
2022-07-27T05:25:25.701Z,61.85
2022-07-27T05:26:00.057Z,61.58
2022-07-27T05:26:32.071Z,61.67
2022-07-27T05:27:04.246Z,61.42
2022-07-27T05:27:38.005Z,61.85
2022-07-27T05:28:26.438Z,61.13
2022-07-27T05:28:59.639Z,61.97
2022-07-27T05:29:31.702Z,62.05
2022-07-27T05:30:04.799Z,61.97
2022-07-27T05:30:37.926Z,61.83
2022-07-27T05:31:10.290Z,61.67
2022-07-27T05:31:42.400Z,61.55
2022-07-27T05:32:15.596Z,61.83
2022-07-27T05:32:47.779Z,61.65
2022-07-27T05:33:20.870Z,61.72
2022-07-27T05:33:57.951Z,61.67
2022-07-27T05:34:30.720Z,61.90
2022-07-27T05:35:04.376Z,62.45
2022-07-27T05:35:37.092Z,61.58
2022-07-27T05:36:10.088Z,61.50
2022-07-27T05:36:42.076Z,61.80
2022-07-27T05:37:14.100Z,62.17
2022-07-27T05:37:47.667Z,62.20
2022-07-27T05:38:19.747Z,61.97
2022-07-27T05:38:51.886Z,61.97
2022-07-27T05:39:25.116Z,63.08
2022-07-27T05:39:57.120Z,62.20
2022-07-27T05:40:29.646Z,62.35
2022-07-27T05:41:03.183Z,62.55
2022-07-27T05:41:36.255Z,62.88
2022-07-27T05:42:08.511Z,62.60
2022-07-27T05:42:43.880Z,62.58
2022-07-27T05:43:16.894Z,62.10
2022-07-27T05:43:48.878Z,62.55
2022-07-27T05:44:20.895Z,62.95
2022-07-27T05:44:56.290Z,62.50
2022-07-27T05:45:28.603Z,61.90
2022-07-27T05:46:00.726Z,62.20
2022-07-27T05:46:34.821Z,61.97
2022-07-27T05:47:07.566Z,62.40
2022-07-27T05:47:43.704Z,63.03
2022-07-27T05:48:16.666Z,62.50
2022-07-27T05:48:48.918Z,62.20
2022-07-27T05:49:22.066Z,62.92
2022-07-27T05:49:55.110Z,63.33
2022-07-27T05:50:27.256Z,62.40
2022-07-27T05:51:02.616Z,62.58
2022-07-27T05:51:34.975Z,62.58
2022-07-27T05:52:08.186Z,62.88
2022-07-27T05:52:41.262Z,62.03
2022-07-27T05:53:13.211Z,61.83
2022-07-27T05:53:45.529Z,62.53
2022-07-27T05:54:19.291Z,62.75
2022-07-27T05:54:53.360Z,62.40
2022-07-27T05:55:26.942Z,62.05
2022-07-27T05:55:59.861Z,61.97
2022-07-27T05:56:33.506Z,62.05
2022-07-27T05:57:06.676Z,62.95
2022-07-27T05:57:41.223Z,62.15
2022-07-27T05:58:13.278Z,62.42
2022-07-27T05:58:46.237Z,62.07
2022-07-27T05:59:18.772Z,61.97
2022-07-27T05:59:54.454Z,61.95
2022-07-27T06:00:27.928Z,62.20
2022-07-27T06:01:00.335Z,62.15
2022-07-27T06:01:32.450Z,62.50
2022-07-27T06:02:05.654Z,63.08
2022-07-27T06:02:37.643Z,62.63
2022-07-27T06:03:10.119Z,62.90
2022-07-27T06:03:43.470Z,62.55
2022-07-27T06:04:15.517Z,62.20
2022-07-27T06:04:50.469Z,62.67
2022-07-27T06:05:23.437Z,62.65
2022-07-27T06:06:15.888Z,62.25
2022-07-27T06:07:06.721Z,62.22
2022-07-27T06:07:57.170Z,63.45
2022-07-27T06:08:29.741Z,63.00
2022-07-27T06:09:02.771Z,63.88
2022-07-27T06:09:34.798Z,62.97
2022-07-27T06:10:08.702Z,62.63
2022-07-27T06:10:44.069Z,62.15
2022-07-27T06:11:16.089Z,62.63
2022-07-27T06:11:50.752Z,62.30
2022-07-27T06:12:22.717Z,62.80
2022-07-27T06:13:04.685Z,63.13
2022-07-27T06:13:37.183Z,63.20
2022-07-27T06:14:14.916Z,63.00
2022-07-27T06:14:51.127Z,62.78
2022-07-27T06:15:24.994Z,62.60
2022-07-27T06:15:57.399Z,62.35
2022-07-27T06:16:30.431Z,62.50
2022-07-27T06:17:03.534Z,62.88
2022-07-27T06:17:36.478Z,62.90
2022-07-27T06:18:18.060Z,62.83
2022-07-27T06:18:50.307Z,62.88
2022-07-27T06:19:22.261Z,63.10
2022-07-27T06:19:55.255Z,62.85
2022-07-27T06:20:27.565Z,62.25
2022-07-27T06:21:01.717Z,62.73
2022-07-27T06:21:34.636Z,63.00
2022-07-27T06:22:06.684Z,62.58
2022-07-27T06:22:46.027Z,62.75
2022-07-27T06:23:19.273Z,63.28
2022-07-27T06:23:51.453Z,62.60
2022-07-27T06:24:23.439Z,63.17
2022-07-27T06:24:56.438Z,63.15
2022-07-27T06:25:34.175Z,62.50
2022-07-27T06:26:09.373Z,62.75
2022-07-27T06:26:41.485Z,63.05
2022-07-27T06:27:14.886Z,62.60
2022-07-27T06:27:48.142Z,62.92
2022-07-27T06:28:20.161Z,62.63
2022-07-27T06:28:52.897Z,62.72
2022-07-27T06:29:25.861Z,63.67
2022-07-27T06:29:57.867Z,62.80
2022-07-27T06:30:30.121Z,62.55
2022-07-27T06:31:03.125Z,62.83
2022-07-27T06:31:35.851Z,63.40
2022-07-27T06:32:08.031Z,63.55
2022-07-27T06:32:40.188Z,63.00
2022-07-27T06:33:16.390Z,62.83
2022-07-27T06:33:51.008Z,63.65
2022-07-27T06:34:25.365Z,62.90
2022-07-27T06:34:57.334Z,62.75
2022-07-27T06:35:30.986Z,63.47
2022-07-27T06:36:05.052Z,63.08
2022-07-27T06:36:39.808Z,62.50
2022-07-27T06:37:11.823Z,62.67
2022-07-27T06:37:45.012Z,63.70
2022-07-27T06:38:19.141Z,62.90
2022-07-27T06:38:51.132Z,63.45
2022-07-27T06:39:24.089Z,63.40
2022-07-27T06:39:56.808Z,63.17
2022-07-27T06:40:30.374Z,63.03
2022-07-27T06:41:02.418Z,62.83
2022-07-27T06:41:34.741Z,62.97
2022-07-27T06:42:08.774Z,63.03
2022-07-27T06:42:42.305Z,63.63
2022-07-27T06:43:15.369Z,63.55
2022-07-27T06:43:47.483Z,63.50
2022-07-27T06:44:19.672Z,63.22
2022-07-27T06:44:52.646Z,63.55
2022-07-27T06:45:24.646Z,63.70
2022-07-27T06:45:58.313Z,63.33
2022-07-27T06:46:32.018Z,64.00
2022-07-27T06:47:04.126Z,63.47
2022-07-27T06:47:36.473Z,64.15
2022-07-27T06:48:22.982Z,63.58
2022-07-27T06:48:56.896Z,63.90
2022-07-27T06:49:30.441Z,63.80
2022-07-27T06:50:02.641Z,63.58
2022-07-27T06:50:35.624Z,63.78
2022-07-27T06:51:08.131Z,63.78
2022-07-27T06:51:40.403Z,63.92
2022-07-27T06:52:13.790Z,63.78
2022-07-27T06:52:45.918Z,63.50
2022-07-27T06:53:21.039Z,64.13
2022-07-27T06:53:54.647Z,63.80
2022-07-27T06:54:26.679Z,63.58
2022-07-27T06:54:59.669Z,63.70
2022-07-27T06:55:31.768Z,63.67
2022-07-27T06:56:04.724Z,64.18
2022-07-27T06:56:38.523Z,64.63
2022-07-27T06:57:10.689Z,63.85
2022-07-27T06:57:44.056Z,64.07
2022-07-27T06:58:17.300Z,64.05
2022-07-27T06:58:49.423Z,64.35
2022-07-27T06:59:21.417Z,64.18
2022-07-27T06:59:54.508Z,64.15
2022-07-27T07:00:26.747Z,63.80
2022-07-27T07:01:02.296Z,64.50
2022-07-27T07:01:34.539Z,64.20
2022-07-27T07:02:07.472Z,64.00
2022-07-27T07:02:50.942Z,64.30
2022-07-27T07:03:25.190Z,64.30
2022-07-27T07:04:00.009Z,64.22
2022-07-27T07:04:32.820Z,64.38
2022-07-27T07:05:05.811Z,64.85
2022-07-27T07:05:43.603Z,64.88
2022-07-27T07:06:15.783Z,63.78
2022-07-27T07:06:47.965Z,64.93
2022-07-27T07:07:21.264Z,64.45
2022-07-27T07:07:55.906Z,64.53
2022-07-27T07:08:29.675Z,64.65
2022-07-27T07:09:04.197Z,64.32
2022-07-27T07:09:36.311Z,64.00
2022-07-27T07:10:10.154Z,64.13
2022-07-27T07:10:44.122Z,64.78
2022-07-27T07:11:16.565Z,64.50
2022-07-27T07:11:52.101Z,64.67